Flight Track Log - Related Links

Times and Time Zones

All times are in EST time to prevent confusion due to time zone crossing. See the SKV7365 flight status page for this flight to view local times or setup timezone preferences in your user account.

Time Position Orientation Groundspeed Altitude Reporting Facility
EST Latitude Longitude Course Direction KTS MPH feet Rate Location/Type
Fri 06:40:50 AM 39.8500 -75.3167 253° West 160 184 2,500  Level Philadelphia TRACON
Fri 06:41:50 AM 39.8500 -75.3833 270° West 256 295 4,900 2,807 Climbing Philadelphia TRACON
Fri 06:42:39 AM 39.9053 -75.4172 335° Northwest 245 282 7,600 2,862 Climbing New York Center
Fri 06:43:39 AM 39.9564 -75.4450 337° Northwest 257 296 10,100 1,800 Climbing New York Center
Fri 06:44:39 AM 40.0422 -75.4833 341° North 312 359 11,200 1,000 Climbing New York Center
Fri 06:45:39 AM 40.1181 -75.5156 342° North 321 369 12,100 1,450 Climbing New York Center
Fri 06:46:39 AM 40.2019 -75.5539 341° North 321 369 14,100 2,100 Climbing New York Center
Fri 06:47:39 AM 40.2697 -75.6294 320° Northwest 311 358 16,300 1,400 Climbing New York Center
Fri 06:48:39 AM 40.3325 -75.7236 311° West 311 358 16,900 300 Climbing New York Center
Fri 06:49:39 AM 40.3894 -75.8094 311° West 311 358 16,900  Level New York Center
Fri 06:50:39 AM 40.4400 -75.8950 308° West 317 365 16,900  Level New York Center
Fri 06:51:39 AM 40.4603 -76.0028 284° West 301 346 16,900 400 Level New York Center
Fri 06:52:39 AM 40.4742 -76.1078 280° West 295 339 17,700 1,250 Climbing New York Center
Fri 06:53:39 AM 40.4919 -76.2211 282° West 307 353 19,400 1,785 Climbing New York Center
Fri 06:54:40 AM 40.5097 -76.3317 282° West 314 361 21,300 1,700 Climbing New York Center
Fri 06:55:39 AM 40.5272 -76.4450 282° West 319 367 22,800 1,563 Climbing New York Center
Fri 06:56:39 AM 40.5467 -76.5639 282° West 319 367 24,400 1,400 Climbing New York Center
Fri 06:57:39 AM 40.5703 -76.6753 286° West 319 367 25,600 1,200 Climbing New York Center
Fri 06:58:39 AM 40.6039 -76.7931 291° West 326 375 26,800 1,200 Climbing New York Center
Fri 06:59:39 AM 40.6353 -76.9133 289° West 339 390 28,000 1,200 Climbing New York Center
Fri 07:00:39 AM 40.6664 -77.0367 288° West 351 404 29,200 1,000 Climbing New York Center
Fri 07:01:39 AM 40.7011 -77.1658 290° West 363 418 30,000 400 Climbing New York Center
Fri 07:02:39 AM 40.7358 -77.2922 290° West 363 418 30,000  Level New York Center
Fri 07:03:39 AM 40.7686 -77.4161 289° West 363 418 30,000  Level New York Center
Fri 07:04:39 AM 40.8008 -77.5453 288° West 363 418 30,000  Level New York Center
Fri 07:07:08 AM 40.8789 -77.8486 289° West 366 421 30,000  Level Cleveland Center
Fri 07:08:09 AM 40.9214 -77.9689 295° West 374 430 30,000  Level Cleveland Center
Fri 07:09:10 AM 41.0189 -78.0272 336° Northwest 400 460 30,000  Level Cleveland Center
Fri 07:10:12 AM 41.1300 -78.0617 347° North 413 475 30,000  Level Cleveland Center
Fri 07:11:13 AM 41.2628 -78.1031 347° North 414 476 30,000  Level Cleveland Center
Fri 07:12:15 AM 41.3747 -78.1378 347° North 414 476 30,000  Level Cleveland Center
Fri 07:13:16 AM 41.4861 -78.1731 347° North 414 476 30,000  Level Cleveland Center
Fri 07:14:18 AM 41.5992 -78.2100 346° North 415 478 30,000 -49 Level Cleveland Center
Fri 07:15:19 AM 41.7119 -78.2453 347° North 417 480 29,900 -537 Descending Cleveland Center
Fri 07:16:21 AM 41.8206 -78.2811 346° North 408 470 28,900 -927 Descending Cleveland Center
Fri 07:17:22 AM 41.9250 -78.3150 346° North 392 451 28,000 -439 Descending Cleveland Center
Fri 07:18:24 AM 42.0531 -78.3572 346° North 392 451 28,000  Level Cleveland Center
Fri 07:19:26 AM 42.1619 -78.3917 347° North 399 459 28,000  Level Cleveland Center
Fri 07:20:27 AM 42.2725 -78.4283 346° North 399 459 28,000 -537 Level Cleveland Center
Fri 07:21:29 AM 42.3814 -78.4631 347° North 399 459 26,900 -1,951 Descending Cleveland Center
Fri 07:22:30 AM 42.4903 -78.5000 346° North 402 463 24,000 -1,415 Descending Cleveland Center
Fri 07:23:32 AM 42.5950 -78.5344 346° North 391 450 24,000 -194 Level Cleveland Center
Fri 07:24:34 AM 42.7003 -78.5711 346° North 389 448 23,600 -829 Descending Cleveland Center
Fri 07:25:35 AM 42.8028 -78.6050 346° North 381 438 22,300 -1,268 Descending Cleveland Center
Fri 07:26:37 AM 42.9031 -78.6383 346° North 374 430 21,000 -1,122 Descending Cleveland Center
Fri 07:27:38 AM 42.9650 -78.7167 317° Northwest 308 354 20,000 -1,122 Descending Cleveland Center
Fri 07:28:40 AM 43.0239 -78.8261 306° West 297 342 18,700 -1,034 Descending Cleveland Center
Fri 07:30:03 AM 43.0833 -78.9333 307° West 290 334 17,500 -965 Descending Toronto Center
Fri 07:31:03 AM 43.1333 -79.0167 309° West 290 334 16,400 -1,050 Descending Toronto Center
Fri 07:32:03 AM 43.1833 -79.1000 309° West 290 334 15,400 -1,000 Descending Toronto Center
Fri 07:33:03 AM 43.2167 -79.2000 295° West 280 322 14,400 -950 Descending Toronto Center
Fri 07:34:03 AM 43.2667 -79.2833 310° West 280 322 13,500 -850 Descending Toronto Center
Fri 07:35:03 AM 43.3167 -79.3333 324° Northwest 250 288 12,700 -950 Descending Toronto Center
Fri 07:36:03 AM 43.3833 -79.3833 331° Northwest 250 288 11,600 -1,300 Descending Toronto Center
Fri 07:37:03 AM 43.4333 -79.4333 324° Northwest 250 288 10,100 -1,500 Descending Toronto Center
Fri 07:38:03 AM 43.5000 -79.4667 340° North 250 288 8,600 -1,050 Descending Toronto Center
Fri 07:39:03 AM 43.5500 -79.5000 334° Northwest 230 265 8,000 -800 Descending Toronto Center
Fri 07:40:03 AM 43.6167 -79.5000 360° North 230 265 7,000 -1,250 Descending Toronto Center
Fri 07:41:03 AM 43.6500 -79.4333 55° Northeast 240 276 5,500 -1,250 Descending Toronto Center
Fri 07:42:03 AM 43.7000 -79.3500 50° Northeast 230 265 4,500 -750 Descending Toronto Center
Fri 07:43:03 AM 43.7500 -79.3500 360° North 190 219 4,000 -700 Descending Toronto Center
Fri 07:44:03 AM 43.7667 -79.4333 286° West 180 207 3,100 -600 Descending Toronto Center
Fri 07:45:03 AM 43.7333 -79.4667 216° Southwest 180 207 2,800 -600 Descending Toronto Center
Fri 07:46:03 AM 43.7000 -79.5167 227° Southwest 170 196 1,900 -850 Descending Toronto Center
Fri 07:47:03 AM 43.6833 -79.5667 245° Southwest 130 150 1,100 -433 Descending Toronto Center
Fri 07:49:03 AM 43.6667 -79.5833 216° Southwest 70 81 600 -250 Descending Toronto Center

Login

Don't have an account? Register now (free) for customized features, flight alerts, and more!